createdAt,value
2018-11-21T00:00:02.437Z,99.99
2018-11-21T00:01:02.413Z,99.99
2018-11-21T00:02:02.403Z,99.99
2018-11-21T00:03:04.848Z,99.99
2018-11-21T00:04:02.386Z,99.99
2018-11-21T00:05:02.367Z,99.99
2018-11-21T00:06:02.095Z,99.99
2018-11-21T00:07:02.088Z,99.99
2018-11-21T00:08:02.344Z,99.99
2018-11-21T00:09:02.335Z,99.99
2018-11-21T00:10:02.313Z,99.99
2018-11-21T00:11:02.036Z,99.99
2018-11-21T00:12:02.036Z,99.99
2018-11-21T00:13:02.286Z,99.99
2018-11-21T00:14:02.009Z,99.99
2018-11-21T00:15:02.007Z,99.99
2018-11-21T00:16:02.235Z,99.99
2018-11-21T00:17:02.221Z,99.99
2018-11-21T00:18:02.215Z,99.99
2018-11-21T00:19:01.984Z,99.99
2018-11-21T00:20:02.208Z,99.99
2018-11-21T00:21:01.922Z,99.99
2018-11-21T00:22:02.160Z,99.99
2018-11-21T00:23:02.142Z,99.99
2018-11-21T00:24:02.133Z,99.99
2018-11-21T00:25:02.122Z,99.99
2018-11-21T00:26:02.111Z,99.99
2018-11-21T00:27:01.845Z,99.99
2018-11-21T00:28:02.088Z,99.99
2018-11-21T00:29:02.080Z,99.99
2018-11-21T00:30:02.060Z,99.99
2018-11-21T00:31:02.047Z,99.99
2018-11-21T00:32:02.036Z,99.99
2018-11-21T00:33:02.032Z,99.99
2018-11-21T00:34:02.032Z,99.99
2018-11-21T00:35:01.759Z,99.99
2018-11-21T00:36:01.994Z,99.99
2018-11-21T00:37:01.984Z,99.99
2018-11-21T00:38:01.967Z,99.99
2018-11-21T00:39:01.952Z,99.99
2018-11-21T00:40:01.963Z,99.99
2018-11-21T00:41:01.940Z,99.99
2018-11-21T00:42:01.937Z,99.99
2018-11-21T00:43:01.910Z,99.99
2018-11-21T00:44:01.895Z,99.99
2018-11-21T00:45:01.882Z,99.99
2018-11-21T00:46:01.867Z,99.99
2018-11-21T00:47:01.857Z,99.99
2018-11-21T00:48:01.593Z,99.99
2018-11-21T00:49:01.584Z,99.99
2018-11-21T00:50:01.820Z,99.99
2018-11-21T00:51:01.554Z,99.99
2018-11-21T00:52:01.795Z,99.99
2018-11-21T00:53:01.540Z,99.99
2018-11-21T00:54:01.514Z,99.99
2018-11-21T00:55:02.423Z,99.99
2018-11-21T00:56:01.753Z,99.99
2018-11-21T00:57:02.213Z,99.99
2018-11-21T00:58:01.472Z,99.99
2018-11-21T00:59:01.710Z,99.99
2018-11-21T01:00:01.711Z,99.99
2018-11-21T01:01:01.700Z,99.99
2018-11-21T01:02:01.422Z,99.99
2018-11-21T01:03:01.656Z,99.99
2018-11-21T01:04:01.653Z,99.99
2018-11-21T01:05:01.383Z,99.99
2018-11-21T01:06:01.367Z,99.99
2018-11-21T01:07:01.633Z,99.99
2018-11-21T01:08:01.341Z,99.99
2018-11-21T01:09:01.590Z,99.99
2018-11-21T01:10:01.316Z,99.99
2018-11-21T01:11:01.307Z,99.99
2018-11-21T01:12:01.304Z,99.99
2018-11-21T01:13:01.537Z,99.99
2018-11-21T01:14:01.529Z,99.99
2018-11-21T01:15:01.556Z,99.99
2018-11-21T01:16:01.241Z,99.99
2018-11-21T01:17:01.582Z,99.99
2018-11-21T01:18:01.490Z,99.99
2018-11-21T01:19:01.461Z,99.99
2018-11-21T01:20:01.197Z,99.99
2018-11-21T01:21:01.464Z,99.99
2018-11-21T01:22:01.420Z,99.99
2018-11-21T01:23:01.408Z,99.99
2018-11-21T01:24:01.485Z,99.99
2018-11-21T01:25:01.385Z,99.99
2018-11-21T01:26:01.118Z,99.99
2018-11-21T01:27:01.105Z,99.99
2018-11-21T01:28:01.344Z,99.99
2018-11-21T01:29:01.079Z,99.99
2018-11-21T01:30:01.329Z,99.99
2018-11-21T01:31:01.320Z,99.99
2018-11-21T01:32:01.319Z,99.99
2018-11-21T01:33:01.302Z,99.99
2018-11-21T01:34:01.303Z,99.99
2018-11-21T01:35:01.020Z,99.99
2018-11-21T01:36:01.251Z,99.99
2018-11-21T01:37:00.984Z,99.99
2018-11-21T01:38:00.970Z,99.99
2018-11-21T01:39:01.217Z,99.99
2018-11-21T01:40:01.215Z,99.99
2018-11-21T01:41:00.936Z,99.99
2018-11-21T01:42:00.920Z,99.99
2018-11-21T01:43:01.162Z,99.99
2018-11-21T01:44:01.179Z,99.99
2018-11-21T01:45:01.146Z,99.99
2018-11-21T01:46:01.135Z,99.99
2018-11-21T01:47:00.855Z,99.99
2018-11-21T01:48:01.109Z,99.99
2018-11-21T01:49:00.832Z,99.99
2018-11-21T01:50:01.080Z,99.99
2018-11-21T01:51:01.064Z,99.99
2018-11-21T01:52:01.082Z,99.99
2018-11-21T01:53:01.041Z,99.99
2018-11-21T01:54:01.033Z,99.99
2018-11-21T01:55:01.029Z,99.99
2018-11-21T01:56:01.004Z,99.99
2018-11-21T01:57:01.059Z,99.99
2018-11-21T01:58:00.717Z,99.99
2018-11-21T01:59:00.957Z,99.99
2018-11-21T02:00:00.988Z,99.99
2018-11-21T02:01:00.961Z,99.99
2018-11-21T02:02:00.929Z,99.99
2018-11-21T02:03:00.667Z,99.99
2018-11-21T02:04:00.901Z,99.99
2018-11-21T02:05:00.893Z,99.99
2018-11-21T02:06:00.627Z,99.99
2018-11-21T02:07:00.860Z,99.99
2018-11-21T02:08:00.853Z,99.99
2018-11-21T02:09:00.861Z,99.99
2018-11-21T02:10:00.606Z,99.99
2018-11-21T02:11:00.558Z,99.99
2018-11-21T02:12:00.550Z,99.99
2018-11-21T02:13:00.787Z,99.99
2018-11-21T02:14:00.523Z,99.99
2018-11-21T02:15:00.770Z,99.99
2018-11-21T02:16:00.762Z,99.99
2018-11-21T02:17:00.743Z,99.99
2018-11-21T02:18:00.745Z,99.99
2018-11-21T02:19:00.714Z,99.99
2018-11-21T02:20:00.706Z,99.99
2018-11-21T02:21:00.710Z,99.99
2018-11-21T02:22:00.425Z,99.99
2018-11-21T02:23:00.661Z,99.99
2018-11-21T02:24:00.650Z,99.99
2018-11-21T02:25:00.642Z,99.99
2018-11-21T02:26:00.667Z,99.99
2018-11-21T02:27:00.613Z,99.99
2018-11-21T02:28:00.596Z,99.99
2018-11-21T02:29:00.359Z,99.99
2018-11-21T02:30:00.574Z,99.99
2018-11-21T02:31:00.568Z,99.99
2018-11-21T02:32:00.559Z,99.99
2018-11-21T02:33:00.549Z,99.99
2018-11-21T02:34:00.529Z,99.99
2018-11-21T02:35:00.518Z,99.99
2018-11-21T02:36:00.256Z,99.99
2018-11-21T02:37:00.485Z,99.99
2018-11-21T02:38:00.480Z,99.99
2018-11-21T02:39:00.475Z,99.99
2018-11-21T02:40:00.471Z,99.99
2018-11-21T02:41:00.447Z,99.99
2018-11-21T02:42:00.423Z,99.99
2018-11-21T02:43:00.178Z,99.99
2018-11-21T02:44:00.402Z,99.99
2018-11-21T02:45:00.394Z,99.99
2018-11-21T02:46:00.376Z,99.99
2018-11-21T02:47:00.127Z,99.99
2018-11-21T02:48:00.348Z,99.99
2018-11-21T02:49:00.340Z,99.99
2018-11-21T02:50:00.327Z,99.99
2018-11-21T02:51:00.326Z,99.99
2018-11-21T02:52:00.314Z,99.99
2018-11-21T02:53:00.031Z,99.99
2018-11-21T02:54:00.272Z,99.99
2018-11-21T02:55:00.258Z,99.99
2018-11-21T02:56:00.251Z,99.99
2018-11-21T02:57:00.238Z,99.99
2018-11-21T02:58:00.228Z,99.99
2018-11-21T02:59:00.213Z,99.99
2018-11-21T03:00:00.222Z,99.99
2018-11-21T03:00:59.929Z,99.99
2018-11-21T03:02:00.189Z,99.99
2018-11-21T03:03:00.163Z,99.99
2018-11-21T03:04:00.149Z,99.99
2018-11-21T03:05:00.132Z,99.99
2018-11-21T03:06:00.125Z,99.99
2018-11-21T03:07:00.118Z,99.99
2018-11-21T03:08:00.102Z,99.99
2018-11-21T03:09:00.084Z,99.99
2018-11-21T03:10:00.075Z,99.99
2018-11-21T03:11:00.083Z,99.99
2018-11-21T03:12:00.061Z,99.99
2018-11-21T03:13:00.043Z,99.99
2018-11-21T03:14:00.060Z,99.99
2018-11-21T03:15:00.009Z,99.99
2018-11-21T03:16:00.010Z,99.99
2018-11-21T03:16:59.988Z,99.99
2018-11-21T03:17:59.977Z,99.99
2018-11-21T03:18:59.958Z,99.99
2018-11-21T03:19:59.690Z,99.99
2018-11-21T03:20:59.679Z,99.99
2018-11-21T03:21:59.955Z,99.99
2018-11-21T03:22:59.663Z,99.99
2018-11-21T03:23:59.894Z,99.99
2018-11-21T03:24:59.628Z,99.99
2018-11-21T03:25:59.878Z,99.99
2018-11-21T03:26:59.895Z,99.99
2018-11-21T03:27:59.592Z,99.99
2018-11-21T03:28:59.589Z,99.99
2018-11-21T03:29:59.567Z,99.99
2018-11-21T03:30:59.591Z,99.99
2018-11-21T03:31:59.793Z,99.99
2018-11-21T03:32:59.793Z,99.99
2018-11-21T03:34:00.247Z,99.99
2018-11-21T03:34:59.813Z,99.99
2018-11-21T03:35:59.740Z,99.99
2018-11-21T03:36:59.729Z,99.99
2018-11-21T03:37:59.717Z,99.99
2018-11-21T03:38:59.707Z,99.99
2018-11-21T03:39:59.705Z,99.99
2018-11-21T03:40:59.677Z,99.99
2018-11-21T03:41:59.418Z,99.99
2018-11-21T03:42:59.410Z,99.99
2018-11-21T03:43:59.643Z,99.99
2018-11-21T03:44:59.634Z,99.99
2018-11-21T03:45:59.627Z,99.99
2018-11-21T03:46:59.620Z,99.99
2018-11-21T03:47:59.593Z,99.99
2018-11-21T03:48:59.599Z,99.99
2018-11-21T03:49:59.571Z,99.99
2018-11-21T03:50:59.554Z,99.99
2018-11-21T03:51:59.539Z,99.99
2018-11-21T03:52:59.537Z,99.99
2018-11-21T03:53:59.516Z,99.99
2018-11-21T03:54:59.252Z,99.99
2018-11-21T03:55:59.502Z,99.99
2018-11-21T03:56:59.477Z,99.99
2018-11-21T03:57:59.477Z,99.99
2018-11-21T03:58:59.460Z,99.99
2018-11-21T03:59:59.440Z,99.99
2018-11-21T04:00:59.176Z,99.99
2018-11-21T04:01:59.422Z,99.99
2018-11-21T04:02:59.409Z,99.99
2018-11-21T04:03:59.156Z,99.99
2018-11-21T04:04:59.385Z,99.99
2018-11-21T04:05:59.375Z,99.99
2018-11-21T04:06:59.103Z,99.99
2018-11-21T04:07:59.351Z,99.99
2018-11-21T04:08:59.351Z,99.99
2018-11-21T04:09:59.329Z,99.99
2018-11-21T04:10:59.296Z,99.99
2018-11-21T04:11:59.297Z,99.99
2018-11-21T04:12:59.276Z,99.99
2018-11-21T04:13:59.009Z,99.99
2018-11-21T04:14:59.247Z,99.99
2018-11-21T04:15:58.978Z,99.99
2018-11-21T04:16:59.223Z,99.99
2018-11-21T04:17:58.960Z,99.99
2018-11-21T04:18:59.197Z,99.99
2018-11-21T04:19:59.193Z,99.99
2018-11-21T04:20:59.170Z,99.99
2018-11-21T04:21:59.160Z,99.99
2018-11-21T04:22:59.147Z,99.99
2018-11-21T04:23:59.135Z,99.99
2018-11-21T04:24:59.118Z,99.99
2018-11-21T04:25:59.103Z,99.99
2018-11-21T04:26:58.834Z,99.99
2018-11-21T04:27:58.827Z,99.99
2018-11-21T04:28:59.070Z,99.99
2018-11-21T04:29:58.812Z,99.99
2018-11-21T04:30:59.040Z,99.99
2018-11-21T04:31:58.777Z,99.99
2018-11-21T04:32:59.027Z,99.99
2018-11-21T04:33:59.016Z,99.99
2018-11-21T04:34:58.995Z,99.99
2018-11-21T04:35:58.980Z,99.99
2018-11-21T04:36:58.977Z,99.99
2018-11-21T04:37:58.972Z,99.99
2018-11-21T04:38:58.691Z,99.99
2018-11-21T04:39:58.937Z,99.99
2018-11-21T04:40:58.917Z,99.99
2018-11-21T04:41:58.650Z,99.99
2018-11-21T04:42:58.893Z,99.99
2018-11-21T04:43:58.891Z,99.99
2018-11-21T04:44:58.879Z,99.99
2018-11-21T04:45:58.872Z,99.99
2018-11-21T04:46:58.841Z,99.99
2018-11-21T04:47:58.835Z,99.99
2018-11-21T04:48:58.569Z,99.99
2018-11-21T04:49:58.542Z,99.99
2018-11-21T04:50:58.790Z,99.99
2018-11-21T04:51:58.776Z,99.99
2018-11-21T04:52:58.782Z,99.99
2018-11-21T04:53:58.771Z,99.99
2018-11-21T04:54:58.491Z,99.99
2018-11-21T04:55:58.726Z,99.99
2018-11-21T04:56:58.719Z,99.99
2018-11-21T04:57:58.719Z,99.99
2018-11-21T04:58:58.720Z,99.99
2018-11-21T04:59:58.684Z,99.99
2018-11-21T05:00:58.673Z,99.99
2018-11-21T05:01:58.391Z,99.99
2018-11-21T05:02:58.641Z,99.99
2018-11-21T05:03:58.365Z,99.99
2018-11-21T05:04:58.353Z,99.99
2018-11-21T05:05:58.597Z,99.99
2018-11-21T05:06:58.607Z,99.99
2018-11-21T05:07:58.317Z,99.99
2018-11-21T05:08:58.588Z,99.99
2018-11-21T05:09:58.306Z,99.99
2018-11-21T05:10:58.544Z,99.99
2018-11-21T05:11:58.557Z,99.99
2018-11-21T05:12:58.263Z,99.99
2018-11-21T05:13:58.507Z,99.99
2018-11-21T05:14:58.492Z,99.99
2018-11-21T05:15:58.481Z,99.99
2018-11-21T05:16:58.469Z,99.99
2018-11-21T05:17:58.441Z,99.99
2018-11-21T05:18:58.437Z,99.99
2018-11-21T05:19:58.423Z,99.99
2018-11-21T05:20:58.404Z,99.99
2018-11-21T05:21:58.397Z,99.99
2018-11-21T05:22:58.388Z,99.99
2018-11-21T05:23:58.376Z,99.99
2018-11-21T05:24:58.356Z,99.99
2018-11-21T05:25:58.127Z,99.99
2018-11-21T05:26:58.331Z,99.99
2018-11-21T05:27:58.314Z,99.99
2018-11-21T05:28:58.314Z,99.99
2018-11-21T05:29:58.312Z,99.99
2018-11-21T05:30:58.303Z,99.99
2018-11-21T05:31:58.271Z,99.99
2018-11-21T05:32:58.010Z,99.99
2018-11-21T05:33:57.990Z,99.99
2018-11-21T05:34:58.243Z,99.99
2018-11-21T05:35:57.968Z,99.99
2018-11-21T05:36:58.219Z,99.99
2018-11-21T05:37:58.197Z,99.99
2018-11-21T05:38:58.176Z,99.99
2018-11-21T05:39:58.178Z,99.99
2018-11-21T05:40:58.167Z,99.99
2018-11-21T05:41:58.135Z,99.99
2018-11-21T05:42:57.872Z,99.99
2018-11-21T05:43:58.136Z,99.99
2018-11-21T05:44:58.112Z,99.99
2018-11-21T05:45:58.093Z,99.99
2018-11-21T05:46:58.075Z,99.99
2018-11-21T05:47:58.066Z,99.99
2018-11-21T05:48:58.067Z,99.99
2018-11-21T05:49:58.044Z,99.99
2018-11-21T05:50:58.031Z,99.99
2018-11-21T05:51:57.777Z,99.99
2018-11-21T05:52:57.749Z,99.99
2018-11-21T05:53:57.737Z,99.99
2018-11-21T05:54:57.720Z,99.99
2018-11-21T05:55:57.978Z,99.99
2018-11-21T05:56:57.979Z,99.99
2018-11-21T05:57:57.948Z,99.99
2018-11-21T05:58:57.938Z,99.99
2018-11-21T05:59:57.914Z,99.99
2018-11-21T06:00:57.906Z,99.99
2018-11-21T06:01:57.629Z,99.99
2018-11-21T06:02:57.627Z,99.99
2018-11-21T06:03:57.860Z,99.99
2018-11-21T06:04:57.860Z,99.99
2018-11-21T06:05:57.833Z,99.99
2018-11-21T06:06:57.826Z,99.99
2018-11-21T06:07:57.822Z,99.99
2018-11-21T06:08:57.849Z,99.99
2018-11-21T06:09:57.826Z,99.99
2018-11-21T06:10:57.528Z,99.99
2018-11-21T06:11:57.502Z,99.99
2018-11-21T06:12:57.755Z,99.99
2018-11-21T06:13:57.745Z,99.99
2018-11-21T06:14:57.726Z,99.99
2018-11-21T06:15:57.714Z,99.99
2018-11-21T06:16:57.694Z,99.99
2018-11-21T06:17:57.694Z,99.99
2018-11-21T06:18:57.687Z,99.99
2018-11-21T06:19:57.402Z,99.99
2018-11-21T06:20:57.643Z,99.99
2018-11-21T06:21:57.378Z,99.99
2018-11-21T06:22:57.640Z,99.99
2018-11-21T06:23:57.607Z,99.99
2018-11-21T06:24:57.596Z,99.99
2018-11-21T06:25:57.599Z,99.99
2018-11-21T06:26:57.564Z,99.99
2018-11-21T06:27:57.553Z,99.99
2018-11-21T06:28:57.551Z,99.99
2018-11-21T06:29:57.542Z,99.99
2018-11-21T06:30:57.520Z,99.99
2018-11-21T06:31:57.526Z,99.99
2018-11-21T06:32:57.515Z,99.99
2018-11-21T06:33:57.221Z,99.99
2018-11-21T06:34:57.461Z,99.99
2018-11-21T06:35:57.459Z,99.99
2018-11-21T06:36:57.193Z,99.99
2018-11-21T06:37:57.445Z,99.99
2018-11-21T06:38:57.412Z,99.99
2018-11-21T06:39:57.163Z,99.99
2018-11-21T06:40:57.407Z,99.99
2018-11-21T06:41:57.132Z,99.99
2018-11-21T06:42:57.394Z,99.99
2018-11-21T06:43:57.409Z,99.99
2018-11-21T06:44:57.351Z,99.99
2018-11-21T06:45:57.094Z,99.99
2018-11-21T06:46:57.320Z,99.99
2018-11-21T06:47:57.311Z,99.99
2018-11-21T06:48:57.301Z,99.99
2018-11-21T06:49:57.037Z,99.99
2018-11-21T06:50:57.286Z,99.99
2018-11-21T06:51:57.002Z,99.99
2018-11-21T06:52:57.042Z,99.99
2018-11-21T06:53:57.016Z,99.99
2018-11-21T06:54:56.956Z,99.99
2018-11-21T06:55:56.949Z,99.99
2018-11-21T06:56:57.199Z,99.99
2018-11-21T06:57:56.929Z,99.99
2018-11-21T06:58:57.668Z,99.99
2018-11-21T06:59:57.155Z,99.99
2018-11-21T07:00:56.900Z,99.99
2018-11-21T07:01:57.146Z,99.99
2018-11-21T07:02:56.851Z,99.99
2018-11-21T07:03:57.116Z,99.99
2018-11-21T07:04:56.846Z,99.99
2018-11-21T07:05:56.829Z,99.99
2018-11-21T07:06:57.072Z,99.99
2018-11-21T07:07:56.796Z,99.99
2018-11-21T07:08:57.031Z,99.99
2018-11-21T07:09:56.766Z,99.99
2018-11-21T07:10:57.011Z,99.99
2018-11-21T07:11:57.004Z,99.99
2018-11-21T07:12:56.996Z,99.99
2018-11-21T07:13:56.721Z,99.99
2018-11-21T07:14:56.967Z,99.99
2018-11-21T07:15:56.693Z,99.99
2018-11-21T07:16:56.951Z,99.99
2018-11-21T07:17:56.946Z,99.99
2018-11-21T07:18:56.910Z,99.99
2018-11-21T07:19:56.646Z,99.99
2018-11-21T07:20:56.882Z,99.99
2018-11-21T07:21:56.877Z,99.99
2018-11-21T07:22:56.862Z,99.99
2018-11-21T07:23:56.888Z,99.99
2018-11-21T07:24:56.842Z,99.99
2018-11-21T07:25:56.579Z,99.99
2018-11-21T07:26:56.818Z,99.99
2018-11-21T07:27:56.806Z,99.99
2018-11-21T07:28:57.688Z,99.99
2018-11-21T07:29:56.793Z,99.99
2018-11-21T07:30:56.769Z,99.99
2018-11-21T07:31:56.807Z,99.99
2018-11-21T07:32:56.744Z,99.99
2018-11-21T07:33:56.736Z,99.99
2018-11-21T07:34:56.467Z,99.99
2018-11-21T07:35:56.728Z,99.99
2018-11-21T07:36:56.699Z,99.99
2018-11-21T07:37:56.437Z,99.99
2018-11-21T07:38:56.440Z,99.99
2018-11-21T07:39:56.664Z,99.99
2018-11-21T07:40:56.648Z,99.99
2018-11-21T07:41:56.644Z,99.99
2018-11-21T07:42:56.744Z,99.99
2018-11-21T07:43:56.612Z,99.99
2018-11-21T07:44:56.615Z,99.99
2018-11-21T07:45:56.355Z,99.99
2018-11-21T07:46:56.351Z,99.99
2018-11-21T07:47:56.568Z,99.99
2018-11-21T07:48:56.306Z,99.99
2018-11-21T07:49:56.304Z,99.99
2018-11-21T07:50:56.978Z,99.99
2018-11-21T07:51:56.531Z,99.99
2018-11-21T07:52:56.277Z,99.99
2018-11-21T07:53:56.503Z,99.99
2018-11-21T07:54:56.512Z,99.99
2018-11-21T07:55:56.495Z,99.99
2018-11-21T07:56:56.460Z,99.99
2018-11-21T07:57:56.461Z,99.99
2018-11-21T07:58:56.465Z,99.99
2018-11-21T07:59:56.197Z,99.99
2018-11-21T08:00:56.442Z,99.99
2018-11-21T08:01:56.433Z,99.99
2018-11-21T08:02:56.413Z,99.99
2018-11-21T08:03:56.426Z,99.99
2018-11-21T08:04:56.383Z,99.99
2018-11-21T08:05:56.371Z,99.99
2018-11-21T08:06:56.365Z,99.99
2018-11-21T08:07:56.106Z,99.99
2018-11-21T08:08:56.367Z,99.99
2018-11-21T08:09:56.352Z,99.99
2018-11-21T08:10:56.065Z,99.99
2018-11-21T08:11:56.309Z,99.99
2018-11-21T08:12:56.299Z,99.99
2018-11-21T08:13:56.292Z,99.99
2018-11-21T08:14:56.283Z,99.99
2018-11-21T08:15:56.267Z,99.99
2018-11-21T08:16:56.257Z,99.99
2018-11-21T08:17:56.246Z,99.99
2018-11-21T08:18:56.232Z,99.99
2018-11-21T08:19:56.241Z,99.99
2018-11-21T08:20:55.954Z,99.99
2018-11-21T08:21:56.206Z,99.99
2018-11-21T08:22:56.197Z,99.99
2018-11-21T08:23:58.128Z,99.99
2018-11-21T08:24:56.176Z,99.99
2018-11-21T08:25:56.150Z,99.99
2018-11-21T08:26:56.148Z,99.99
2018-11-21T08:27:56.142Z,99.99
2018-11-21T08:28:56.132Z,99.99
2018-11-21T08:29:56.123Z,99.99
2018-11-21T08:30:56.116Z,99.99
2018-11-21T08:31:56.095Z,99.99
2018-11-21T08:32:56.093Z,99.99
2018-11-21T08:33:56.080Z,99.99
2018-11-21T08:34:56.076Z,99.99
2018-11-21T08:35:56.062Z,99.99
2018-11-21T08:36:57.120Z,99.99
2018-11-21T08:37:56.044Z,99.99
2018-11-21T08:38:55.776Z,99.99
2018-11-21T08:39:56.018Z,99.99
2018-11-21T08:40:56.019Z,99.99
2018-11-21T08:41:56.004Z,99.99
2018-11-21T08:42:55.991Z,99.99
2018-11-21T08:44:55.973Z,99.99
2018-11-21T08:45:55.957Z,99.99
2018-11-21T08:46:55.946Z,99.99
2018-11-21T08:47:55.680Z,99.99
2018-11-21T08:48:55.936Z,99.99
2018-11-21T08:49:55.905Z,99.99
2018-11-21T08:50:55.933Z,99.99
2018-11-21T08:51:55.899Z,99.99
2018-11-21T08:52:55.918Z,99.99
2018-11-21T08:53:55.876Z,99.99
2018-11-21T08:54:55.860Z,99.99
2018-11-21T08:55:55.856Z,99.99
2018-11-21T08:56:55.836Z,99.99
2018-11-21T08:57:55.864Z,99.99
2018-11-21T08:58:55.839Z,99.99
2018-11-21T08:59:55.821Z,99.99
2018-11-21T09:00:55.825Z,99.99
2018-11-21T09:01:55.792Z,99.99
2018-11-21T09:02:55.776Z,99.99
2018-11-21T09:03:55.524Z,99.99
2018-11-21T09:04:55.766Z,99.99
2018-11-21T09:05:55.756Z,99.99
2018-11-21T09:06:55.900Z,99.99
2018-11-21T09:07:55.483Z,99.99
2018-11-21T09:08:55.743Z,99.99
2018-11-21T09:09:55.718Z,99.99
2018-11-21T09:10:55.709Z,99.99
2018-11-21T09:11:55.695Z,99.99
2018-11-21T09:12:55.687Z,99.99
2018-11-21T09:13:55.777Z,99.99
2018-11-21T09:14:55.675Z,99.99
2018-11-21T09:15:55.907Z,99.99
2018-11-21T09:16:55.655Z,99.99
2018-11-21T09:17:55.399Z,99.99
2018-11-21T09:18:55.634Z,99.99
2018-11-21T09:19:55.624Z,99.99
2018-11-21T09:20:55.631Z,99.99
2018-11-21T09:21:55.358Z,99.99
2018-11-21T09:22:55.603Z,99.99
2018-11-21T09:23:55.590Z,99.99
2018-11-21T09:24:55.351Z,99.99
2018-11-21T09:25:55.311Z,99.99
2018-11-21T09:26:55.309Z,99.99
2018-11-21T09:27:55.545Z,99.99
2018-11-21T09:28:55.538Z,99.99
2018-11-21T09:29:55.530Z,99.99
2018-11-21T09:30:55.258Z,99.99
2018-11-21T09:31:55.251Z,99.99
2018-11-21T09:32:55.503Z,99.99
2018-11-21T09:33:55.262Z,99.99
2018-11-21T09:34:55.482Z,99.99
2018-11-21T09:35:55.475Z,99.99
2018-11-21T09:36:55.476Z,99.99
2018-11-21T09:37:55.222Z,99.99
2018-11-21T09:38:55.430Z,99.99
2018-11-21T09:39:55.425Z,99.99
2018-11-21T09:40:55.441Z,99.99
2018-11-21T09:41:55.158Z,99.99
2018-11-21T09:42:55.407Z,99.99
2018-11-21T09:43:55.393Z,99.99
2018-11-21T09:44:55.379Z,99.99
2018-11-21T09:45:55.370Z,99.99
2018-11-21T09:46:55.352Z,99.99
2018-11-21T09:47:55.115Z,99.99
2018-11-21T09:48:55.335Z,99.99
2018-11-21T09:49:55.072Z,99.99
2018-11-21T09:50:55.311Z,99.99
2018-11-21T09:51:55.305Z,99.99
2018-11-21T09:52:55.289Z,99.99
2018-11-21T09:53:55.281Z,99.99
2018-11-21T09:54:55.044Z,99.99
2018-11-21T09:55:55.266Z,99.99
2018-11-21T09:56:55.295Z,99.99
2018-11-21T09:57:55.294Z,99.99
2018-11-21T09:58:55.246Z,99.99
2018-11-21T09:59:55.228Z,99.99
2018-11-21T10:00:55.216Z,99.99
2018-11-21T10:01:54.950Z,99.99
2018-11-21T10:02:55.212Z,99.99
2018-11-21T10:03:54.933Z,99.99
2018-11-21T10:04:54.921Z,99.99
2018-11-21T10:05:55.180Z,99.99
2018-11-21T10:06:55.161Z,99.99
2018-11-21T10:07:55.144Z,99.99
2018-11-21T10:08:55.139Z,99.99
2018-11-21T10:09:54.871Z,99.99
2018-11-21T10:10:54.860Z,99.99
2018-11-21T10:11:55.113Z,99.99
2018-11-21T10:12:55.101Z,99.99
2018-11-21T10:13:55.099Z,99.99
2018-11-21T10:14:55.111Z,99.99
2018-11-21T10:15:54.826Z,99.99
2018-11-21T10:16:55.065Z,99.99
2018-11-21T10:17:55.054Z,99.99
2018-11-21T10:18:55.055Z,99.99
2018-11-21T10:19:55.065Z,99.99
2018-11-21T10:20:55.053Z,99.99
2018-11-21T10:21:55.066Z,99.99
2018-11-21T10:22:55.012Z,99.99
2018-11-21T10:23:55.048Z,99.99
2018-11-21T10:24:55.040Z,99.99
2018-11-21T10:25:55.034Z,99.99
2018-11-21T10:26:54.970Z,99.99
2018-11-21T10:27:54.701Z,99.99
2018-11-21T10:28:55.008Z,99.99
2018-11-21T10:29:54.683Z,99.99
2018-11-21T10:30:54.931Z,99.99
2018-11-21T10:31:54.653Z,99.99
2018-11-21T10:32:54.922Z,99.99
2018-11-21T10:33:54.922Z,99.99
2018-11-21T10:34:54.888Z,99.99
2018-11-21T10:35:54.888Z,99.99
2018-11-21T10:36:54.624Z,99.99
2018-11-21T10:37:55.155Z,99.99
2018-11-21T10:38:54.857Z,99.99
2018-11-21T10:39:54.850Z,99.99
2018-11-21T10:40:54.825Z,99.99
2018-11-21T10:41:54.840Z,99.99
2018-11-21T10:42:54.805Z,99.99
2018-11-21T10:43:54.831Z,99.99
2018-11-21T10:44:54.793Z,99.99
2018-11-21T10:45:54.788Z,99.99
2018-11-21T10:46:54.507Z,99.99
2018-11-21T10:47:54.754Z,99.99
2018-11-21T10:48:54.507Z,99.99
2018-11-21T10:49:54.741Z,99.99
2018-11-21T10:50:54.732Z,99.99
2018-11-21T10:51:54.479Z,99.99
2018-11-21T10:52:54.707Z,99.99
2018-11-21T10:53:54.708Z,99.99
2018-11-21T10:54:54.695Z,99.99
2018-11-21T10:55:54.674Z,99.99
2018-11-21T10:56:54.670Z,99.99
2018-11-21T10:57:54.409Z,99.99
2018-11-21T10:58:54.652Z,99.99
2018-11-21T10:59:54.636Z,99.99
2018-11-21T11:00:54.640Z,99.99
2018-11-21T11:01:54.611Z,99.99
2018-11-21T11:02:54.620Z,99.99
2018-11-21T11:03:54.340Z,99.99
2018-11-21T11:04:54.654Z,99.86
2018-11-21T11:05:54.573Z,99.29
2018-11-21T11:06:54.316Z,99.39
2018-11-21T11:07:54.559Z,99.86
2018-11-21T11:08:54.294Z,99.99
2018-11-21T11:09:54.550Z,99.96
2018-11-21T11:10:54.562Z,99.99
2018-11-21T11:11:54.519Z,99.99
2018-11-21T11:12:54.256Z,99.99
2018-11-21T11:13:54.505Z,99.99
2018-11-21T11:14:54.505Z,99.99
2018-11-21T11:15:54.481Z,99.99
2018-11-21T11:16:54.230Z,99.99
2018-11-21T11:17:57.480Z,99.99
2018-11-21T11:18:54.203Z,99.99
2018-11-21T11:19:54.462Z,99.99
2018-11-21T11:20:54.441Z,99.99
2018-11-21T11:21:54.426Z,99.99
2018-11-21T11:22:54.413Z,99.99
2018-11-21T11:23:54.414Z,99.99
2018-11-21T11:24:54.394Z,99.99
2018-11-21T11:25:54.161Z,99.86
2018-11-21T11:26:54.393Z,99.96
2018-11-21T11:27:54.114Z,99.67
2018-11-21T11:28:54.120Z,99.48
2018-11-21T11:29:54.113Z,99.86
2018-11-21T11:30:54.100Z,99.01
2018-11-21T11:31:54.336Z,99.77
2018-11-21T11:32:54.322Z,99.99
2018-11-21T11:33:54.054Z,99.99
2018-11-21T11:34:54.304Z,99.99
2018-11-21T11:35:54.295Z,99.99
2018-11-21T11:36:54.281Z,99.99
2018-11-21T11:37:54.272Z,99.99
2018-11-21T11:38:54.518Z,99.99
2018-11-21T11:39:53.998Z,99.99
2018-11-21T11:40:54.257Z,99.99
2018-11-21T11:41:54.237Z,99.99
2018-11-21T11:42:54.229Z,99.99
2018-11-21T11:43:54.245Z,99.99
2018-11-21T11:44:54.209Z,99.99
2018-11-21T11:45:54.202Z,99.99
2018-11-21T11:46:54.206Z,99.99
2018-11-21T11:47:54.200Z,99.99
2018-11-21T11:48:54.164Z,99.99
2018-11-21T11:49:54.162Z,99.99
2018-11-21T11:50:54.151Z,99.99
2018-11-21T11:51:54.163Z,99.99
2018-11-21T11:52:54.155Z,99.99
2018-11-21T11:53:54.128Z,99.99
2018-11-21T11:54:54.100Z,99.99
2018-11-21T11:55:54.095Z,99.99
2018-11-21T11:56:54.103Z,99.99
2018-11-21T11:57:54.086Z,99.99
2018-11-21T11:58:54.063Z,99.99
2018-11-21T11:59:54.064Z,99.99
2018-11-21T12:00:54.047Z,99.99
2018-11-21T12:01:54.034Z,99.99
2018-11-21T12:02:54.044Z,99.99
2018-11-21T12:03:57.719Z,99.99
2018-11-21T12:04:54.014Z,99.99
2018-11-21T12:05:53.993Z,99.99
2018-11-21T12:06:53.981Z,99.99
2018-11-21T12:07:53.717Z,99.86
2018-11-21T12:08:53.975Z,99.99
2018-11-21T12:09:53.704Z,99.99
2018-11-21T12:10:53.956Z,99.67
2018-11-21T12:11:53.945Z,99.48
2018-11-21T12:12:53.689Z,98.72
2018-11-21T12:13:53.942Z,99.1
2018-11-21T12:14:53.660Z,97.87
2018-11-21T12:15:53.643Z,97.87
2018-11-21T12:16:53.637Z,97.78
2018-11-21T12:17:53.642Z,98.35
2018-11-21T12:18:53.627Z,98.06
2018-11-21T12:19:53.622Z,99.58
2018-11-21T12:20:53.601Z,98.72
2018-11-21T12:21:53.845Z,98.44
2018-11-21T12:22:53.576Z,99.48
2018-11-21T12:23:53.845Z,99.1
2018-11-21T12:24:53.820Z,99.96
2018-11-21T12:25:53.561Z,99.99
2018-11-21T12:26:53.548Z,99.99
2018-11-21T12:27:53.837Z,99.99
2018-11-21T12:28:53.778Z,99.99
2018-11-21T12:29:53.782Z,99.99
2018-11-21T12:30:53.767Z,99.99
2018-11-21T12:31:53.762Z,99.99
2018-11-21T12:32:53.480Z,99.99
2018-11-21T12:33:53.734Z,99.99
2018-11-21T12:34:53.760Z,99.99
2018-11-21T12:35:53.711Z,99.99
2018-11-21T12:36:53.727Z,99.99
2018-11-21T12:37:53.435Z,99.99
2018-11-21T12:38:53.713Z,99.99
2018-11-21T12:39:53.664Z,99.99
2018-11-21T12:40:53.661Z,99.99
2018-11-21T12:41:53.409Z,99.99
2018-11-21T12:42:53.404Z,99.99
2018-11-21T12:43:53.750Z,99.99
2018-11-21T12:44:53.620Z,99.99
2018-11-21T12:45:53.608Z,99.99
2018-11-21T12:46:53.602Z,99.99
2018-11-21T12:47:53.339Z,99.99
2018-11-21T12:48:53.585Z,99.99
2018-11-21T12:49:53.618Z,99.99
2018-11-21T12:50:53.587Z,99.99
2018-11-21T12:51:53.589Z,99.99
2018-11-21T12:52:53.547Z,99.99